Winfield, Missouri
Current Conditions -  °F | °C
As of 3:54 AM on Sunday 26 Oct 2014 (Local Time) from KSET Reporting Station
Clear Clear  
Wind Chill: 56°   Ceiling: Unl
Heat Index: 56°   Visibility: 10mi
Dew Point: 41°   Wind: 5mph
Humidity: 57%   Direction: 60°ENE
Pressure: 30.02"   Gusts: NA
Location:  39°N, 90.74°W
Report Text: KSET 260854Z AUTO 06004KT 10SM CLR 13/05 A3002 RMK AO2 SLP163 T01330050 53001
Loading
Personal Weather Stations






























Interactive Weather Map
Tropical Storm Tracking
New forecast layout! Learn more

10-Day Weather Forecast

Advertisements
Track Severe Weather on mobile